Flight Track Log - Related Links

Times and Time Zones

All times are in EDT time to prevent confusion due to time zone crossing. See the EGF4174 flight status page for this flight to view local times or setup timezone preferences in your user account.

Time Position Orientation Groundspeed Altitude Reporting Facility
EDT Latitude Longitude Course Direction KTS MPH feet Rate Location/Type
Thu 04:53:27 PM 43.1089 -76.0892 286° West 162 186 1,100  Level Boston Center
Thu 04:54:40 PM 43.1522 -76.0436 37° Northeast 237 273 3,600 1,865 Climbing Boston Center
Thu 04:55:00 PM 43.1706 -76.3117 295° West  Level FlightAware Approximate
Thu 04:56:00 PM 43.1833 -76.4178 270° West  Level FlightAware Approximate
Thu 04:57:00 PM 43.2023 -76.5158 281° West  Level FlightAware Approximate
Thu 04:57:09 PM 43.2169 -76.2525 293° West 258 297 8,000  Level Cleveland Center
Thu 04:58:00 PM 43.2182 -76.6236 286° West  Level FlightAware Approximate
Thu 04:58:09 PM 43.2186 -76.3494 271° West 258 297 9,800  Level Cleveland Center
Thu 04:59:09 PM 43.2186 -76.4664 270° West 277 319 10,000 1,200 Climbing Cleveland Center
Thu 05:00:09 PM 43.2250 -76.5883 274° West 305 351 12,200 1,950 Climbing Cleveland Center
Thu 05:01:09 PM 43.2436 -76.7042 282° West 310 357 13,900 1,600 Climbing Cleveland Center
Thu 05:02:09 PM 43.2642 -76.8225 283° West 316 364 15,400 1,500 Climbing Cleveland Center
Thu 05:03:09 PM 43.2844 -76.9411 283° West 316 364 16,900 1,350 Climbing Cleveland Center
Thu 05:04:09 PM 43.3000 -77.0372 283° West 316 364 18,100 1,400 Climbing Cleveland Center
Thu 05:05:09 PM 43.3081 -77.1653 275° West 316 364 19,700 1,400 Climbing Cleveland Center
Thu 05:06:09 PM 43.3092 -77.2794 271° West 309 356 20,900 1,200 Climbing Cleveland Center
Thu 05:07:09 PM 43.3042 -77.3967 267° West 309 356 22,100 1,200 Climbing Cleveland Center
Thu 05:08:09 PM 43.3011 -77.5167 268° West 309 356 23,300 1,200 Climbing Cleveland Center
Thu 05:09:09 PM 43.2981 -77.6394 268° West 314 361 24,500 1,250 Climbing Cleveland Center
Thu 05:10:09 PM 43.2969 -77.7650 269° West 319 367 25,800 1,250 Climbing Cleveland Center
Thu 05:11:09 PM 43.2917 -77.8878 267° West 324 373 27,000 1,200 Climbing Cleveland Center
Thu 05:12:09 PM 43.2881 -78.0078 268° West 324 373 28,200 1,300 Climbing Cleveland Center
Thu 05:13:09 PM 43.2847 -78.1450 268° West 329 379 29,600 1,300 Climbing Cleveland Center
Thu 05:14:09 PM 43.2811 -78.2647 268° West 329 379 30,800 1,200 Climbing Cleveland Center
Thu 05:15:09 PM 43.2772 -78.3847 267° West 329 379 32,000 600 Climbing Cleveland Center
Thu 05:16:09 PM 43.2711 -78.5103 266° West 329 379 32,000 100 Level Cleveland Center
Thu 05:17:09 PM 43.2672 -78.6417 268° West 341 392 32,200 700 Climbing Cleveland Center
Thu 05:18:09 PM 43.2631 -78.7758 268° West 353 406 33,400 1,150 Climbing Cleveland Center
Thu 05:19:09 PM 43.2589 -78.9072 268° West 358 412 34,500 1,100 Climbing Cleveland Center
Thu 05:20:09 PM 43.2544 -79.0411 267° West 351 404 35,600 882 Climbing Cleveland Center
Thu 05:20:51 PM 43.2333 -79.1000 244° Southwest 330 380 36,000 235 Climbing Toronto Center
Thu 05:21:51 PM 43.2333 -79.2500 270° West 340 391 36,000  Level Toronto Center
Thu 05:22:51 PM 43.2333 -79.3667 270° West 350 403 36,000  Level Toronto Center
Thu 05:23:51 PM 43.2167 -79.5167 261° West 370 426 36,000  Level Toronto Center
Thu 05:24:51 PM 43.2167 -79.6500 270° West 380 437 36,000  Level Toronto Center
Thu 05:25:51 PM 43.2000 -79.8167 262° West 390 449 36,000  Level Toronto Center
Thu 05:26:51 PM 43.2000 -79.9500 270° West 390 449 36,000  Level Toronto Center
Thu 05:27:51 PM 43.2000 -80.1167 270° West 380 437 36,000  Level Toronto Center
Thu 05:28:51 PM 43.1833 -80.2500 260° West 380 437 36,000  Level Toronto Center
Thu 05:29:51 PM 43.1833 -80.3833 270° West 380 437 36,000  Level Toronto Center
Thu 05:30:51 PM 43.1667 -80.5500 262° West 390 449 36,000  Level Toronto Center
Thu 05:31:51 PM 43.1667 -80.6833 270° West 390 449 36,000  Level Toronto Center
Thu 05:32:51 PM 43.1500 -80.8500 262° West 390 449 36,000  Level Toronto Center
Thu 05:33:51 PM 43.1333 -80.9833 260° West 390 449 36,000  Level Toronto Center
Thu 05:34:51 PM 43.1333 -81.1167 270° West 390 449 36,000  Level Toronto Center
Thu 05:35:51 PM 43.1333 -81.2833 270° West 390 449 36,000  Level Toronto Center
Thu 05:36:51 PM 43.1167 -81.4167 260° West 390 449 36,000  Level Toronto Center
Thu 05:37:51 PM 43.1167 -81.5667 270° West 390 449 36,000  Level Toronto Center
Thu 05:38:51 PM 43.1000 -81.7333 262° West 400 460 36,000  Level Toronto Center
Thu 05:39:51 PM 43.1000 -81.8667 270° West 400 460 36,000  Level Toronto Center
Thu 05:40:51 PM 43.0833 -82.0333 262° West 400 460 36,000  Level Toronto Center
Thu 05:41:51 PM 43.0667 -82.1667 260° West 400 460 36,000  Level Toronto Center
Thu 05:42:51 PM 43.0667 -82.3333 270° West 400 460 36,000  Level Toronto Center
Thu 05:43:51 PM 43.0500 -82.4667 260° West 400 460 36,000  Level Toronto Center
Thu 05:44:51 PM 43.0500 -82.6167 270° West 400 460 36,000  Level Toronto Center
Thu 05:45:09 PM 43.0500 -82.6600 270° West 404 465 36,000 -692 Level Cleveland Center
Thu 05:46:09 PM 43.0389 -82.8131 264° West 409 471 35,100 -950 Descending Cleveland Center
Thu 05:47:09 PM 43.0256 -82.9631 263° West 404 465 34,100 -1,050 Descending Cleveland Center
Thu 05:48:09 PM 43.0158 -83.1161 265° West 404 465 33,000 -1,050 Descending Cleveland Center
Thu 05:49:09 PM 43.0042 -83.2661 264° West 404 465 32,000 -500 Descending Cleveland Center
Thu 05:50:09 PM 42.9922 -83.4189 264° West 404 465 32,000  Level Cleveland Center
Thu 05:51:09 PM 42.9800 -83.5686 264° West 404 465 32,000  Level Cleveland Center
Thu 05:52:09 PM 42.9678 -83.7214 264° West 404 465 32,000  Level Cleveland Center
Thu 05:53:09 PM 42.9531 -83.8739 263° West 404 465 32,000  Level Cleveland Center
Thu 05:54:09 PM 42.9378 -84.0433 263° West 404 465 32,000  Level Cleveland Center
Thu 05:55:09 PM 42.9225 -84.1983 262° West 409 471 32,000  Level Cleveland Center
Thu 05:55:27 PM 42.9186 -84.2447 263° West 413 475 32,000  Level Chicago Center
Thu 05:56:29 PM 42.9036 -84.3967 262° West 408 470 32,000  Level Chicago Center
Thu 05:57:32 PM 42.8883 -84.5478 262° West 410 472 32,000  Level Chicago Center
Thu 05:58:34 PM 42.8725 -84.6994 262° West 408 470 32,000  Level Chicago Center
Thu 05:59:36 PM 42.8561 -84.8547 262° West 413 475 32,000  Level Chicago Center
Thu 06:00:38 PM 42.8400 -85.0083 262° West 411 473 32,000  Level Chicago Center
Thu 06:01:40 PM 42.8200 -85.1925 262° West 411 473 32,000  Level Chicago Center
Thu 06:02:42 PM 42.8036 -85.3486 262° West 408 470 32,000  Level Chicago Center
Thu 06:03:44 PM 42.7858 -85.5025 261° West 410 472 32,000 -968 Level Chicago Center
Thu 06:04:46 PM 42.7592 -85.6514 256° West 410 472 30,000 -2,419 Descending Chicago Center
Thu 06:06:00 PM 42.7209 -85.8000 259° West  Level FlightAware Approximate
Thu 06:06:50 PM 42.7031 -85.9589 259° West 415 478 24,500  Level Chicago Center
Thu 06:07:52 PM 42.6761 -86.1064 256° West 404 465 21,700 -2,160 Descending Chicago Center
Thu 06:08:55 PM 42.6456 -86.2758 256° West 386 444 20,000 -816 Descending Chicago Center
Thu 06:09:57 PM 42.6186 -86.4131 255° West 378 435 20,000 -48 Level Chicago Center
Thu 06:10:59 PM 42.5928 -86.5511 256° West 378 435 19,900 -1,161 Descending Chicago Center
Thu 06:12:01 PM 42.5678 -86.6903 256° West 380 437 17,600 -2,323 Descending Chicago Center
Thu 06:13:03 PM 42.5361 -86.8217 252° West 371 427 15,100 -2,419 Descending Chicago Center
Thu 06:14:05 PM 42.5003 -86.9528 250° West 369 425 12,600 -2,129 Descending Chicago Center
Thu 06:15:07 PM 42.4583 -87.1019 249° West 352 405 10,700 -1,258 Descending Chicago Center
Thu 06:16:09 PM 42.4242 -87.2233 249° West 347 399 10,000 -339 Descending Chicago Center
Thu 06:17:11 PM 42.3908 -87.3450 250° West 346 398 10,000  Level Chicago Center
Thu 06:18:13 PM 42.3539 -87.4814 250° West 342 394 10,000  Level Chicago Center
Thu 06:19:15 PM 42.2956 -87.5797 231° Southwest 347 399 10,000  Level Chicago Center
Thu 06:20:18 PM 42.2206 -87.6606 219° Southwest 345 397 10,000  Level Chicago Center
Thu 06:21:20 PM 42.1544 -87.7297 218° Southwest 306 352 10,000 -629 Level Chicago Center
Thu 06:22:22 PM 42.0869 -87.7761 207° Southwest 277 319 8,700 -968 Descending Chicago Center
Thu 06:23:24 PM 42.0050 -87.8092 197° South 255 293 8,000 -339 Descending Chicago Center
Thu 06:24:26 PM 41.9428 -87.8342 197° South 237 273 8,000 -97 Level Chicago Center
Thu 06:25:28 PM 41.8825 -87.8642 200° South 233 268 7,800 -774 Descending Chicago Center
Thu 06:26:30 PM 41.8317 -87.9178 218° Southwest 233 268 6,400 -1,306 Descending Chicago Center
Thu 06:27:32 PM 41.7811 -87.9683 217° Southwest 231 266 5,100 -1,161 Descending Chicago Center
Thu 06:28:34 PM 41.8081 -88.0481 294° West 225 259 4,000 -1,065 Descending Chicago Center

Login

Don't have an account? Register now (free) for customized features, flight alerts, and more!